Etusivu
METAR-TAF:

METAR-TAF

Lentoasemat :

Valcartier, Quebec, Kanada

Leveyspiiri: 46-54N, Pituuspiiri: 071-30W, korkeus merenpinnasta: 168 m

Tämänhetkinen sää

Tämä raportti tehtiin 1 tunti ja 3 minuuttia sitten, kello 09.00 UTC
Tuuli 9 kn pohjoisen/luoteesta
Lämpötila -8°C
Kosteus 67%
Ilmanpaine 1016 hPa
Näkyvyys: 14.5 km
Hajonneita pilviä 5400 ft:n korkeudessa

METAR: CYOY 170900Z AUTO 34009KT 9SM BKN054 M08/M13 A3001 RMK SLP175

Aika: 05:03 (10:03 UTC)


TAF: puuttuu

Säähavainnot ja -ennusteet yli 4000 lentoasemalta (METAR- ja TAF-raportit).

Käytössä olevat sääasemat on merkitty karttaan keltaisilla ja punaisilla pisteillä.

Aseta hiiri pisteen päälle nähdäksesi sääaseman nimen.

Klikkaa sitten nähdäksesi säähavainnot ja -ennusteet.

Kartan vaihtaminen: klikkaa mustalla rastilla varustettuja vihreitä pisteitä, niin voit zoomata sisään; viivalla varustettua vihreää pistettä, niin voit zoomata ulos tai vihreitä nuolia, niin pääset viereisille kartoille.


METAR-TAF: